sensor_id;sensor_type;location;lat;lon;timestamp;pressure;altitude;pressure_sealevel;temperature;humidity
49943;BME280;36011;53.362;58.948;2023-07-02T00:02:04;95336.00;;;21.11;33.65
49943;BME280;36011;53.362;58.948;2023-07-02T00:05:06;95329.03;;;21.29;33.08
49943;BME280;36011;53.362;58.948;2023-07-02T00:08:07;95320.78;;;21.18;33.03
49943;BME280;36011;53.362;58.948;2023-07-02T00:11:08;95334.53;;;21.01;33.35
49943;BME280;36011;53.362;58.948;2023-07-02T00:14:15;95352.63;;;20.99;33.12
49943;BME280;36011;53.362;58.948;2023-07-02T00:17:21;95357.59;;;21.16;33.10
49943;BME280;36011;53.362;58.948;2023-07-02T00:20:23;95335.84;;;21.32;32.67
49943;BME280;36011;53.362;58.948;2023-07-02T00:23:24;95340.13;;;21.20;32.56
49943;BME280;36011;53.362;58.948;2023-07-02T00:26:25;95350.81;;;21.20;32.06
49943;BME280;36011;53.362;58.948;2023-07-02T00:29:27;95325.59;;;21.56;30.85
49943;BME280;36011;53.362;58.948;2023-07-02T00:32:32;95318.75;;;21.80;30.41
49943;BME280;36011;53.362;58.948;2023-07-02T00:35:35;95329.06;;;21.96;30.20
49943;BME280;36011;53.362;58.948;2023-07-02T00:38:46;95339.97;;;22.01;30.25
49943;BME280;36011;53.362;58.948;2023-07-02T00:41:48;95338.75;;;22.04;30.40
49943;BME280;36011;53.362;58.948;2023-07-02T00:44:49;95351.72;;;22.00;30.43
49943;BME280;36011;53.362;58.948;2023-07-02T00:47:53;95361.38;;;22.08;30.42
49943;BME280;36011;53.362;58.948;2023-07-02T00:50:57;95358.72;;;22.01;30.89
49943;BME280;36011;53.362;58.948;2023-07-02T00:54:01;95365.91;;;22.07;30.96
49943;BME280;36011;53.362;58.948;2023-07-02T00:57:02;95373.34;;;22.05;31.61
49943;BME280;36011;53.362;58.948;2023-07-02T01:00:06;95390.44;;;21.84;31.98
49943;BME280;36011;53.362;58.948;2023-07-02T01:03:10;95376.22;;;22.10;34.21
49943;BME280;36011;53.362;58.948;2023-07-02T01:06:12;95385.31;;;22.03;36.12
49943;BME280;36011;53.362;58.948;2023-07-02T01:09:13;95413.53;;;22.12;37.52
49943;BME280;36011;53.362;58.948;2023-07-02T01:12:17;95355.44;;;22.06;38.22
49943;BME280;36011;53.362;58.948;2023-07-02T01:15:23;95363.03;;;22.02;39.53
49943;BME280;36011;53.362;58.948;2023-07-02T01:18:25;95422.19;;;22.01;40.73
49943;BME280;36011;53.362;58.948;2023-07-02T01:21:27;95410.63;;;21.93;42.69
49943;BME280;36011;53.362;58.948;2023-07-02T01:24:28;95440.31;;;21.92;44.36
49943;BME280;36011;53.362;58.948;2023-07-02T01:27:31;95448.72;;;21.69;46.04
49943;BME280;36011;53.362;58.948;2023-07-02T01:30:35;95443.53;;;21.54;47.39
49943;BME280;36011;53.362;58.948;2023-07-02T01:33:36;95446.59;;;21.44;48.16
49943;BME280;36011;53.362;58.948;2023-07-02T01:36:39;95440.19;;;21.32;48.45
49943;BME280;36011;53.362;58.948;2023-07-02T01:39:42;95502.13;;;21.29;49.32
49943;BME280;36011;53.362;58.948;2023-07-02T01:42:46;95486.06;;;21.29;49.77
49943;BME280;36011;53.362;58.948;2023-07-02T01:45:46;95494.03;;;21.16;50.58
49943;BME280;36011;53.362;58.948;2023-07-02T01:48:50;95516.25;;;21.16;51.64
49943;BME280;36011;53.362;58.948;2023-07-02T01:51:51;95511.94;;;20.52;55.12
49943;BME280;36011;53.362;58.948;2023-07-02T01:54:53;95500.03;;;19.84;60.16
49943;BME280;36011;53.362;58.948;2023-07-02T01:57:56;95484.09;;;19.18;62.81
49943;BME280;36011;53.362;58.948;2023-07-02T02:00:57;95490.38;;;18.95;64.33
49943;BME280;36011;53.362;58.948;2023-07-02T02:04:01;95461.69;;;18.68;65.05
49943;BME280;36011;53.362;58.948;2023-07-02T02:07:04;95444.81;;;18.60;65.77
49943;BME280;36011;53.362;58.948;2023-07-02T02:10:05;95440.75;;;18.65;65.73
49943;BME280;36011;53.362;58.948;2023-07-02T02:13:09;95429.44;;;18.62;65.46
49943;BME280;36011;53.362;58.948;2023-07-02T02:16:10;95441.13;;;18.76;65.61
49943;BME280;36011;53.362;58.948;2023-07-02T02:19:11;95456.63;;;19.17;64.40
49943;BME280;36011;53.362;58.948;2023-07-02T02:22:19;95433.28;;;19.19;63.88
49943;BME280;36011;53.362;58.948;2023-07-02T02:25:22;95420.16;;;19.24;63.84
49943;BME280;36011;53.362;58.948;2023-07-02T02:28:23;95417.34;;;19.26;64.19
49943;BME280;36011;53.362;58.948;2023-07-02T02:31:28;95412.06;;;19.33;63.77
49943;BME280;36011;53.362;58.948;2023-07-02T02:34:30;95426.41;;;19.32;63.99
49943;BME280;36011;53.362;58.948;2023-07-02T02:37:37;95411.94;;;19.41;63.39
49943;BME280;36011;53.362;58.948;2023-07-02T02:40:42;95396.19;;;19.46;62.36
49943;BME280;36011;53.362;58.948;2023-07-02T02:43:45;95404.94;;;19.61;61.56
49943;BME280;36011;53.362;58.948;2023-07-02T02:46:48;95385.38;;;19.76;60.17
49943;BME280;36011;53.362;58.948;2023-07-02T02:49:52;95387.91;;;19.84;59.76
49943;BME280;36011;53.362;58.948;2023-07-02T02:52:53;95401.72;;;19.87;59.33
49943;BME280;36011;53.362;58.948;2023-07-02T02:55:57;95408.66;;;19.82;58.49
49943;BME280;36011;53.362;58.948;2023-07-02T02:59:00;95390.06;;;19.95;57.72
49943;BME280;36011;53.362;58.948;2023-07-02T03:02:02;95372.31;;;19.81;58.44
49943;BME280;36011;53.362;58.948;2023-07-02T03:05:04;95386.41;;;19.53;59.66
49943;BME280;36011;53.362;58.948;2023-07-02T03:08:07;95387.78;;;19.06;62.56
49943;BME280;36011;53.362;58.948;2023-07-02T03:11:08;95393.50;;;18.73;63.20
49943;BME280;36011;53.362;58.948;2023-07-02T03:14:12;95379.22;;;18.45;63.73
49943;BME280;36011;53.362;58.948;2023-07-02T03:17:13;95386.00;;;18.47;63.96
49943;BME280;36011;53.362;58.948;2023-07-02T03:20:15;95388.75;;;18.69;63.65
49943;BME280;36011;53.362;58.948;2023-07-02T03:23:20;95381.94;;;18.96;63.05
49943;BME280;36011;53.362;58.948;2023-07-02T03:26:23;95382.22;;;19.44;61.17
49943;BME280;36011;53.362;58.948;2023-07-02T03:29:27;95379.19;;;19.68;60.56
49943;BME280;36011;53.362;58.948;2023-07-02T03:32:28;95380.94;;;19.83;60.14
49943;BME280;36011;53.362;58.948;2023-07-02T03:35:31;95372.00;;;19.69;60.61
49943;BME280;36011;53.362;58.948;2023-07-02T03:38:37;95355.03;;;19.77;60.44
49943;BME280;36011;53.362;58.948;2023-07-02T03:41:38;95344.53;;;20.03;59.50
49943;BME280;36011;53.362;58.948;2023-07-02T03:44:41;95341.66;;;20.33;58.90
49943;BME280;36011;53.362;58.948;2023-07-02T03:47:42;95348.69;;;20.47;58.54
49943;BME280;36011;53.362;58.948;2023-07-02T03:50:46;95343.28;;;20.34;59.14
49943;BME280;36011;53.362;58.948;2023-07-02T03:53:47;95333.91;;;20.51;59.00
49943;BME280;36011;53.362;58.948;2023-07-02T03:56:51;95327.69;;;20.37;59.03
49943;BME280;36011;53.362;58.948;2023-07-02T03:59:52;95337.88;;;20.55;58.72
49943;BME280;36011;53.362;58.948;2023-07-02T04:02:56;95327.56;;;20.52;58.70
49943;BME280;36011;53.362;58.948;2023-07-02T04:05:57;95327.03;;;20.70;58.69
49943;BME280;36011;53.362;58.948;2023-07-02T04:09:03;95318.03;;;20.84;58.56
49943;BME280;36011;53.362;58.948;2023-07-02T04:12:05;95331.22;;;20.99;57.68
49943;BME280;36011;53.362;58.948;2023-07-02T04:15:06;95333.47;;;20.89;57.79
49943;BME280;36011;53.362;58.948;2023-07-02T04:18:12;95336.81;;;21.04;57.44
49943;BME280;36011;53.362;58.948;2023-07-02T04:21:15;95346.94;;;21.29;56.74
49943;BME280;36011;53.362;58.948;2023-07-02T04:24:16;95359.13;;;21.38;56.71
49943;BME280;36011;53.362;58.948;2023-07-02T04:27:20;95345.53;;;21.53;56.32
49943;BME280;36011;53.362;58.948;2023-07-02T04:30:24;95337.72;;;21.65;54.97
49943;BME280;36011;53.362;58.948;2023-07-02T04:33:30;95336.88;;;21.51;53.88
49943;BME280;36011;53.362;58.948;2023-07-02T04:36:39;95335.28;;;20.75;55.96
49943;BME280;36011;53.362;58.948;2023-07-02T04:39:40;95329.53;;;20.85;55.57
49943;BME280;36011;53.362;58.948;2023-07-02T04:42:44;95333.03;;;20.79;55.34
49943;BME280;36011;53.362;58.948;2023-07-02T04:45:48;95340.50;;;21.03;54.83
49943;BME280;36011;53.362;58.948;2023-07-02T04:48:52;95334.41;;;21.43;54.17
49943;BME280;36011;53.362;58.948;2023-07-02T04:51:53;95338.94;;;22.09;52.55
49943;BME280;36011;53.362;58.948;2023-07-02T04:54:57;95343.72;;;22.72;51.05
49943;BME280;36011;53.362;58.948;2023-07-02T04:58:01;95354.63;;;23.28;49.71
49943;BME280;36011;53.362;58.948;2023-07-02T05:01:05;95365.72;;;23.39;49.31
49943;BME280;36011;53.362;58.948;2023-07-02T05:04:09;95366.72;;;23.06;50.40
49943;BME280;36011;53.362;58.948;2023-07-02T05:07:15;95367.81;;;22.85;51.08
49943;BME280;36011;53.362;58.948;2023-07-02T05:10:19;95363.56;;;22.64;51.54
49943;BME280;36011;53.362;58.948;2023-07-02T05:13:25;95354.00;;;22.23;52.57
49943;BME280;36011;53.362;58.948;2023-07-02T05:16:26;95361.97;;;22.16;52.95
49943;BME280;36011;53.362;58.948;2023-07-02T05:19:30;95361.63;;;22.00;53.44
49943;BME280;36011;53.362;58.948;2023-07-02T05:22:31;95366.97;;;21.73;54.15
49943;BME280;36011;53.362;58.948;2023-07-02T05:25:32;95377.88;;;21.58;54.37
49943;BME280;36011;53.362;58.948;2023-07-02T05:28:35;95365.13;;;21.67;54.33
49943;BME280;36011;53.362;58.948;2023-07-02T05:31:42;95361.19;;;21.76;54.32
49943;BME280;36011;53.362;58.948;2023-07-02T05:34:45;95362.00;;;21.96;53.92
49943;BME280;36011;53.362;58.948;2023-07-02T05:37:48;95369.41;;;22.34;53.33
49943;BME280;36011;53.362;58.948;2023-07-02T05:40:51;95376.31;;;22.75;52.75
49943;BME280;36011;53.362;58.948;2023-07-02T05:43:52;95372.91;;;23.06;52.45
49943;BME280;36011;53.362;58.948;2023-07-02T05:46:56;95366.97;;;22.98;52.68
49943;BME280;36011;53.362;58.948;2023-07-02T05:50:02;95363.03;;;23.00;52.46
49943;BME280;36011;53.362;58.948;2023-07-02T05:53:09;95371.44;;;23.11;52.50
49943;BME280;36011;53.362;58.948;2023-07-02T05:56:13;95363.47;;;22.91;52.79
49943;BME280;36011;53.362;58.948;2023-07-02T05:59:16;95365.81;;;22.67;53.23
49943;BME280;36011;53.362;58.948;2023-07-02T06:02:20;95365.69;;;22.49;53.70
49943;BME280;36011;53.362;58.948;2023-07-02T06:05:23;95369.03;;;22.31;54.57
49943;BME280;36011;53.362;58.948;2023-07-02T06:08:30;95358.06;;;22.46;54.40
49943;BME280;36011;53.362;58.948;2023-07-02T06:11:31;95354.19;;;22.28;54.44
49943;BME280;36011;53.362;58.948;2023-07-02T06:14:36;95345.13;;;22.03;55.04
49943;BME280;36011;53.362;58.948;2023-07-02T06:17:42;95349.25;;;22.18;55.06
49943;BME280;36011;53.362;58.948;2023-07-02T06:20:46;95357.75;;;22.67;54.62
49943;BME280;36011;53.362;58.948;2023-07-02T06:23:50;95364.16;;;23.24;53.68
49943;BME280;36011;53.362;58.948;2023-07-02T06:27:01;95367.44;;;23.58;52.81
49943;BME280;36011;53.362;58.948;2023-07-02T06:30:04;95365.69;;;24.46;51.34
49943;BME280;36011;53.362;58.948;2023-07-02T06:33:08;95373.09;;;24.87;50.26
49943;BME280;36011;53.362;58.948;2023-07-02T06:36:11;95373.84;;;24.94;49.70
49943;BME280;36011;53.362;58.948;2023-07-02T06:39:20;95365.13;;;25.29;49.35
49943;BME280;36011;53.362;58.948;2023-07-02T06:42:22;95355.66;;;25.80;48.48
49943;BME280;36011;53.362;58.948;2023-07-02T06:45:25;95352.47;;;26.02;47.06
49943;BME280;36011;53.362;58.948;2023-07-02T06:48:26;95343.94;;;25.74;47.84
49943;BME280;36011;53.362;58.948;2023-07-02T06:51:32;95342.63;;;26.19;46.53
49943;BME280;36011;53.362;58.948;2023-07-02T06:54:35;95342.97;;;26.23;46.53
49943;BME280;36011;53.362;58.948;2023-07-02T06:57:42;95339.16;;;27.11;44.73
49943;BME280;36011;53.362;58.948;2023-07-02T07:00:46;95335.69;;;28.57;41.53
49943;BME280;36011;53.362;58.948;2023-07-02T07:03:50;95349.50;;;30.35;38.62
49943;BME280;36011;53.362;58.948;2023-07-02T07:06:54;95353.56;;;33.51;34.13
49943;BME280;36011;53.362;58.948;2023-07-02T07:10:01;95350.72;;;34.75;31.12
49943;BME280;36011;53.362;58.948;2023-07-02T07:13:04;95349.97;;;36.31;29.04
49943;BME280;36011;53.362;58.948;2023-07-02T07:16:07;95344.88;;;37.03;26.50
49943;BME280;36011;53.362;58.948;2023-07-02T07:19:10;95349.88;;;36.22;27.10
49943;BME280;36011;53.362;58.948;2023-07-02T07:22:15;95332.22;;;34.37;29.45
49943;BME280;36011;53.362;58.948;2023-07-02T07:25:19;95335.84;;;32.99;31.58
49943;BME280;36011;53.362;58.948;2023-07-02T07:28:23;95336.81;;;32.08;33.21
49943;BME280;36011;53.362;58.948;2023-07-02T07:31:26;95345.69;;;31.42;33.79
49943;BME280;36011;53.362;58.948;2023-07-02T07:34:27;95343.72;;;30.69;35.26
49943;BME280;36011;53.362;58.948;2023-07-02T07:37:31;95339.19;;;29.68;37.01
49943;BME280;36011;53.362;58.948;2023-07-02T07:40:34;95343.41;;;29.09;38.53
49943;BME280;36011;53.362;58.948;2023-07-02T07:43:40;95334.28;;;28.72;39.60
49943;BME280;36011;53.362;58.948;2023-07-02T07:46:44;95333.69;;;28.70;39.80
49943;BME280;36011;53.362;58.948;2023-07-02T07:49:45;95339.75;;;28.77;39.93
49943;BME280;36011;53.362;58.948;2023-07-02T07:52:46;95349.72;;;28.93;39.20
49943;BME280;36011;53.362;58.948;2023-07-02T07:55:49;95343.91;;;29.06;39.15
49943;BME280;36011;53.362;58.948;2023-07-02T07:58:50;95345.47;;;29.02;39.31
49943;BME280;36011;53.362;58.948;2023-07-02T08:01:53;95344.66;;;29.24;39.20
49943;BME280;36011;53.362;58.948;2023-07-02T08:05:00;95349.34;;;29.06;40.06
49943;BME280;36011;53.362;58.948;2023-07-02T08:08:01;95339.25;;;28.80;40.35
49943;BME280;36011;53.362;58.948;2023-07-02T08:11:05;95351.28;;;29.11;39.35
49943;BME280;36011;53.362;58.948;2023-07-02T08:14:06;95358.47;;;29.49;38.41
49943;BME280;36011;53.362;58.948;2023-07-02T08:17:12;95357.47;;;29.83;37.81
49943;BME280;36011;53.362;58.948;2023-07-02T08:20:14;95356.19;;;29.90;37.67
49943;BME280;36011;53.362;58.948;2023-07-02T08:23:15;95361.72;;;30.06;37.44
49943;BME280;36011;53.362;58.948;2023-07-02T08:26:18;95358.78;;;29.53;37.89
49943;BME280;36011;53.362;58.948;2023-07-02T08:29:19;95357.19;;;28.86;39.00
49943;BME280;36011;53.362;58.948;2023-07-02T08:32:22;95366.94;;;28.87;38.63
49943;BME280;36011;53.362;58.948;2023-07-02T08:35:24;95367.47;;;29.28;37.82
49943;BME280;36011;53.362;58.948;2023-07-02T08:38:26;95366.72;;;30.19;36.25
49943;BME280;36011;53.362;58.948;2023-07-02T08:41:30;95353.16;;;31.04;34.43
49943;BME280;36011;53.362;58.948;2023-07-02T08:44:47;95361.53;;;31.86;33.26
49943;BME280;36011;53.362;58.948;2023-07-02T08:47:48;95364.13;;;33.14;31.05
49943;BME280;36011;53.362;58.948;2023-07-02T08:50:54;95374.72;;;33.75;30.72
49943;BME280;36011;53.362;58.948;2023-07-02T08:53:57;95364.50;;;34.30;30.05
49943;BME280;36011;53.362;58.948;2023-07-02T08:56:59;95369.22;;;35.07;28.54
49943;BME280;36011;53.362;58.948;2023-07-02T09:00:07;95361.16;;;34.38;28.75
49943;BME280;36011;53.362;58.948;2023-07-02T09:03:12;95352.44;;;34.36;29.45
49943;BME280;36011;53.362;58.948;2023-07-02T09:06:21;95355.41;;;34.40;28.39
49943;BME280;36011;53.362;58.948;2023-07-02T09:09:24;95355.38;;;33.22;30.17
49943;BME280;36011;53.362;58.948;2023-07-02T09:12:29;95358.56;;;32.28;31.87
49943;BME280;36011;53.362;58.948;2023-07-02T09:15:39;95362.09;;;32.03;32.16
49943;BME280;36011;53.362;58.948;2023-07-02T09:18:42;95363.19;;;32.12;32.51
49943;BME280;36011;53.362;58.948;2023-07-02T09:24:51;95356.09;;;32.52;31.67
49943;BME280;36011;53.362;58.948;2023-07-02T09:27:57;95364.56;;;32.15;32.17
49943;BME280;36011;53.362;58.948;2023-07-02T09:30:58;95353.34;;;31.70;32.31
49943;BME280;36011;53.362;58.948;2023-07-02T09:34:02;95355.25;;;30.86;33.57
49943;BME280;36011;53.362;58.948;2023-07-02T09:37:04;95360.84;;;30.27;34.92
49943;BME280;36011;53.362;58.948;2023-07-02T09:40:12;95356.53;;;29.45;36.13
49943;BME280;36011;53.362;58.948;2023-07-02T09:43:13;95358.38;;;28.95;37.01
49943;BME280;36011;53.362;58.948;2023-07-02T09:46:17;95357.34;;;28.57;37.85
49943;BME280;36011;53.362;58.948;2023-07-02T09:49:21;95358.00;;;28.48;38.28
49943;BME280;36011;53.362;58.948;2023-07-02T09:52:23;95355.84;;;28.67;37.52
49943;BME280;36011;53.362;58.948;2023-07-02T09:55:25;95358.34;;;28.73;38.28
49943;BME280;36011;53.362;58.948;2023-07-02T09:58:26;95358.06;;;27.97;39.15
49943;BME280;36011;53.362;58.948;2023-07-02T10:01:33;95345.63;;;27.67;40.05
49943;BME280;36011;53.362;58.948;2023-07-02T10:04:42;95358.88;;;27.81;39.68
49943;BME280;36011;53.362;58.948;2023-07-02T10:07:45;95342.78;;;28.25;38.60
49943;BME280;36011;53.362;58.948;2023-07-02T10:10:49;95357.97;;;28.64;37.91
49943;BME280;36011;53.362;58.948;2023-07-02T10:13:59;95355.13;;;28.93;37.67
49943;BME280;36011;53.362;58.948;2023-07-02T10:17:03;95361.03;;;29.12;37.04
49943;BME280;36011;53.362;58.948;2023-07-02T10:20:06;95358.50;;;28.83;37.76
49943;BME280;36011;53.362;58.948;2023-07-02T10:23:18;95370.88;;;28.40;38.96
49943;BME280;36011;53.362;58.948;2023-07-02T10:26:21;95374.34;;;28.19;39.67
49943;BME280;36011;53.362;58.948;2023-07-02T10:29:25;95377.78;;;27.52;40.64
49943;BME280;36011;53.362;58.948;2023-07-02T10:32:29;95361.34;;;26.61;42.36
49943;BME280;36011;53.362;58.948;2023-07-02T10:35:33;95358.66;;;26.02;43.69
49943;BME280;36011;53.362;58.948;2023-07-02T10:38:37;95366.16;;;25.58;45.20
49943;BME280;36011;53.362;58.948;2023-07-02T10:41:38;95370.25;;;25.00;46.71
49943;BME280;36011;53.362;58.948;2023-07-02T10:44:49;95384.75;;;24.44;47.58
49943;BME280;36011;53.362;58.948;2023-07-02T10:47:53;95382.44;;;24.23;48.21
49943;BME280;36011;53.362;58.948;2023-07-02T10:50:54;95369.16;;;24.28;47.52
49943;BME280;36011;53.362;58.948;2023-07-02T10:54:02;95367.03;;;24.73;46.82
49943;BME280;36011;53.362;58.948;2023-07-02T10:57:06;95365.72;;;25.13;46.01
49943;BME280;36011;53.362;58.948;2023-07-02T11:00:08;95371.22;;;25.36;45.18
49943;BME280;36011;53.362;58.948;2023-07-02T11:03:19;95374.97;;;25.35;45.21
49943;BME280;36011;53.362;58.948;2023-07-02T11:06:22;95373.06;;;25.54;44.85
49943;BME280;36011;53.362;58.948;2023-07-02T11:09:26;95378.00;;;26.11;43.84
49943;BME280;36011;53.362;58.948;2023-07-02T11:12:30;95364.63;;;26.63;42.29
49943;BME280;36011;53.362;58.948;2023-07-02T11:15:35;95365.22;;;27.17;41.93
49943;BME280;36011;53.362;58.948;2023-07-02T11:18:36;95367.88;;;28.37;39.86
49943;BME280;36011;53.362;58.948;2023-07-02T11:21:38;95372.56;;;29.73;37.81
49943;BME280;36011;53.362;58.948;2023-07-02T11:24:40;95374.50;;;31.38;35.30
49943;BME280;36011;53.362;58.948;2023-07-02T11:27:45;95373.25;;;32.37;34.21
49943;BME280;36011;53.362;58.948;2023-07-02T11:30:49;95378.41;;;32.44;33.99
49943;BME280;36011;53.362;58.948;2023-07-02T11:33:52;95375.13;;;32.73;33.58
49943;BME280;36011;53.362;58.948;2023-07-02T11:36:53;95375.91;;;32.88;33.58
49943;BME280;36011;53.362;58.948;2023-07-02T11:39:57;95380.53;;;32.83;34.03
49943;BME280;36011;53.362;58.948;2023-07-02T11:43:00;95375.38;;;33.51;33.50
49943;BME280;36011;53.362;58.948;2023-07-02T11:46:03;95380.81;;;34.06;31.89
49943;BME280;36011;53.362;58.948;2023-07-02T11:49:07;95376.50;;;34.34;32.35
49943;BME280;36011;53.362;58.948;2023-07-02T11:52:13;95360.50;;;34.52;32.15
49943;BME280;36011;53.362;58.948;2023-07-02T11:55:18;95361.06;;;34.49;32.17
49943;BME280;36011;53.362;58.948;2023-07-02T11:58:20;95364.72;;;34.34;32.28
49943;BME280;36011;53.362;58.948;2023-07-02T12:01:22;95360.50;;;34.52;31.89
49943;BME280;36011;53.362;58.948;2023-07-02T12:04:23;95357.56;;;34.43;31.22
49943;BME280;36011;53.362;58.948;2023-07-02T12:07:27;95356.47;;;33.70;31.36
49943;BME280;36011;53.362;58.948;2023-07-02T12:10:34;95362.03;;;33.50;31.65
49943;BME280;36011;53.362;58.948;2023-07-02T12:13:37;95343.69;;;33.66;28.32
49943;BME280;36011;53.362;58.948;2023-07-02T12:16:41;95352.31;;;32.17;30.32
49943;BME280;36011;53.362;58.948;2023-07-02T12:19:44;95344.59;;;31.48;29.92
49943;BME280;36011;53.362;58.948;2023-07-02T12:22:47;95343.97;;;31.20;30.05
49943;BME280;36011;53.362;58.948;2023-07-02T12:25:49;95347.75;;;31.14;30.04
49943;BME280;36011;53.362;58.948;2023-07-02T12:28:52;95340.84;;;30.91;30.19
49943;BME280;36011;53.362;58.948;2023-07-02T12:31:55;95352.69;;;30.27;30.56
49943;BME280;36011;53.362;58.948;2023-07-02T12:34:58;95342.06;;;30.20;30.49
49943;BME280;36011;53.362;58.948;2023-07-02T12:37:59;95364.72;;;30.04;30.83
49943;BME280;36011;53.362;58.948;2023-07-02T12:41:00;95349.91;;;29.85;30.71
49943;BME280;36011;53.362;58.948;2023-07-02T12:44:04;95348.94;;;29.47;31.12
49943;BME280;36011;53.362;58.948;2023-07-02T12:47:05;95350.31;;;29.00;31.76
49943;BME280;36011;53.362;58.948;2023-07-02T12:50:09;95349.25;;;29.01;31.60
49943;BME280;36011;53.362;58.948;2023-07-02T12:53:12;95347.28;;;28.75;31.82
49943;BME280;36011;53.362;58.948;2023-07-02T12:56:13;95340.47;;;28.50;32.18
49943;BME280;36011;53.362;58.948;2023-07-02T12:59:17;95335.91;;;28.17;32.71
49943;BME280;36011;53.362;58.948;2023-07-02T13:02:25;95344.03;;;28.00;32.78
49943;BME280;36011;53.362;58.948;2023-07-02T13:05:26;95353.78;;;28.01;32.41
49943;BME280;36011;53.362;58.948;2023-07-02T13:08:29;95344.88;;;27.55;32.96
49943;BME280;36011;53.362;58.948;2023-07-02T13:11:33;95337.31;;;27.57;33.12
49943;BME280;36011;53.362;58.948;2023-07-02T13:14:36;95345.72;;;27.72;32.53
49943;BME280;36011;53.362;58.948;2023-07-02T13:17:37;95343.53;;;27.41;32.40
49943;BME280;36011;53.362;58.948;2023-07-02T13:20:39;95352.44;;;27.13;32.73
49943;BME280;36011;53.362;58.948;2023-07-02T13:23:40;95353.63;;;27.05;33.53
49943;BME280;36011;53.362;58.948;2023-07-02T13:26:41;95351.50;;;26.78;33.87
49943;BME280;36011;53.362;58.948;2023-07-02T13:29:43;95353.91;;;26.92;34.14
49943;BME280;36011;53.362;58.948;2023-07-02T13:32:44;95347.72;;;26.79;34.19
49943;BME280;36011;53.362;58.948;2023-07-02T13:35:47;95344.63;;;26.99;34.12
49943;BME280;36011;53.362;58.948;2023-07-02T13:38:48;95333.78;;;26.71;34.51
49943;BME280;36011;53.362;58.948;2023-07-02T13:41:49;95340.72;;;26.43;34.66
49943;BME280;36011;53.362;58.948;2023-07-02T13:44:53;95338.28;;;26.53;34.64
49943;BME280;36011;53.362;58.948;2023-07-02T13:47:56;95347.28;;;26.35;34.58
49943;BME280;36011;53.362;58.948;2023-07-02T13:50:59;95336.28;;;26.25;34.02
49943;BME280;36011;53.362;58.948;2023-07-02T13:54:02;95334.16;;;26.04;34.85
49943;BME280;36011;53.362;58.948;2023-07-02T13:57:09;95340.00;;;26.12;34.53
49943;BME280;36011;53.362;58.948;2023-07-02T14:00:10;95344.00;;;25.86;34.82
49943;BME280;36011;53.362;58.948;2023-07-02T14:03:16;95354.31;;;25.89;34.73
49943;BME280;36011;53.362;58.948;2023-07-02T14:06:22;95352.47;;;26.02;34.77
49943;BME280;36011;53.362;58.948;2023-07-02T14:09:25;95363.63;;;25.75;35.17
49943;BME280;36011;53.362;58.948;2023-07-02T14:12:29;95356.94;;;25.77;35.00
49943;BME280;36011;53.362;58.948;2023-07-02T14:15:34;95357.25;;;25.88;34.73
49943;BME280;36011;53.362;58.948;2023-07-02T14:18:36;95366.44;;;25.80;35.12
49943;BME280;36011;53.362;58.948;2023-07-02T14:21:41;95356.94;;;25.77;35.23
49943;BME280;36011;53.362;58.948;2023-07-02T14:24:42;95356.44;;;25.57;35.67
49943;BME280;36011;53.362;58.948;2023-07-02T14:27:48;95360.56;;;25.60;35.46
49943;BME280;36011;53.362;58.948;2023-07-02T14:30:55;95367.28;;;25.50;35.73
49943;BME280;36011;53.362;58.948;2023-07-02T14:33:59;95363.56;;;25.51;35.35
49943;BME280;36011;53.362;58.948;2023-07-02T14:37:02;95373.06;;;25.54;35.39
49943;BME280;36011;53.362;58.948;2023-07-02T14:40:04;95379.09;;;25.38;35.68
49943;BME280;36011;53.362;58.948;2023-07-02T14:43:07;95372.59;;;25.27;35.58
49943;BME280;36011;53.362;58.948;2023-07-02T14:46:09;95378.81;;;25.27;35.85
49943;BME280;36011;53.362;58.948;2023-07-02T14:49:12;95384.44;;;25.07;36.51
49943;BME280;36011;53.362;58.948;2023-07-02T14:52:13;95383.16;;;25.10;36.83
49943;BME280;36011;53.362;58.948;2023-07-02T14:55:15;95385.47;;;25.06;36.99
49943;BME280;36011;53.362;58.948;2023-07-02T14:58:18;95393.13;;;24.73;37.14
49943;BME280;36011;53.362;58.948;2023-07-02T15:01:25;95400.22;;;24.42;38.15
49943;BME280;36011;53.362;58.948;2023-07-02T15:04:27;95399.78;;;24.27;38.52
49943;BME280;36011;53.362;58.948;2023-07-02T15:07:31;95401.53;;;24.14;38.41
49943;BME280;36011;53.362;58.948;2023-07-02T15:10:35;95402.69;;;24.00;39.56
49943;BME280;36011;53.362;58.948;2023-07-02T15:13:48;95407.06;;;24.19;39.63
49943;BME280;36011;53.362;58.948;2023-07-02T15:16:50;95408.56;;;24.15;40.14
49943;BME280;36011;53.362;58.948;2023-07-02T15:19:55;95411.59;;;24.01;40.63
49943;BME280;36011;53.362;58.948;2023-07-02T15:22:56;95417.13;;;23.74;41.07
49943;BME280;36011;53.362;58.948;2023-07-02T15:26:01;95415.59;;;23.53;41.67
49943;BME280;36011;53.362;58.948;2023-07-02T15:29:04;95427.19;;;23.47;41.95
49943;BME280;36011;53.362;58.948;2023-07-02T15:32:05;95420.47;;;23.31;42.85
49943;BME280;36011;53.362;58.948;2023-07-02T15:35:07;95429.03;;;23.08;42.97
49943;BME280;36011;53.362;58.948;2023-07-02T15:38:10;95427.22;;;23.02;43.47
49943;BME280;36011;53.362;58.948;2023-07-02T15:41:13;95426.13;;;23.16;43.53
49943;BME280;36011;53.362;58.948;2023-07-02T15:44:17;95428.28;;;22.74;43.75
49943;BME280;36011;53.362;58.948;2023-07-02T15:47:22;95434.69;;;22.67;44.39
49943;BME280;36011;53.362;58.948;2023-07-02T15:50:26;95430.44;;;22.32;45.16
49943;BME280;36011;53.362;58.948;2023-07-02T15:53:30;95434.16;;;22.31;45.71
49943;BME280;36011;53.362;58.948;2023-07-02T15:56:32;95433.72;;;21.94;46.31
49943;BME280;36011;53.362;58.948;2023-07-02T15:59:37;95433.50;;;21.83;46.80
49943;BME280;36011;53.362;58.948;2023-07-02T16:02:41;95447.69;;;21.70;46.99